sensor_id;sensor_type;location;lat;lon;timestamp;pressure;altitude;pressure_sealevel;temperature;humidity
65227;BME280;51805;49.012;12.104;2023-07-09T00:01:43;98163.97;;;25.32;37.91
65227;BME280;51805;49.012;12.104;2023-07-09T00:04:10;98173.19;;;25.36;37.79
65227;BME280;51805;49.012;12.104;2023-07-09T00:06:36;98174.03;;;25.31;37.78
65227;BME280;51805;49.012;12.104;2023-07-09T00:09:02;98175.84;;;25.17;38.24
65227;BME280;51805;49.012;12.104;2023-07-09T00:11:27;98177.53;;;25.13;38.27
65227;BME280;51805;49.012;12.104;2023-07-09T00:13:52;98186.34;;;25.05;38.52
65227;BME280;51805;49.012;12.104;2023-07-09T00:16:21;98186.97;;;25.21;38.34
65227;BME280;51805;49.012;12.104;2023-07-09T00:18:48;98189.63;;;25.26;37.94
65227;BME280;51805;49.012;12.104;2023-07-09T00:21:15;98192.63;;;25.24;38.15
65227;BME280;51805;49.012;12.104;2023-07-09T00:23:42;98190.22;;;25.23;38.09
65227;BME280;51805;49.012;12.104;2023-07-09T00:26:11;98188.00;;;25.25;38.01
65227;BME280;51805;49.012;12.104;2023-07-09T00:28:37;98190.94;;;25.28;38.06
65227;BME280;51805;49.012;12.104;2023-07-09T00:31:02;98193.13;;;25.26;38.17
65227;BME280;51805;49.012;12.104;2023-07-09T00:33:28;98186.38;;;25.24;38.18
65227;BME280;51805;49.012;12.104;2023-07-09T00:35:53;98193.13;;;25.26;37.94
65227;BME280;51805;49.012;12.104;2023-07-09T00:38:20;98189.34;;;25.27;37.95
65227;BME280;51805;49.012;12.104;2023-07-09T00:41:00;98188.81;;;25.25;38.29
65227;BME280;51805;49.012;12.104;2023-07-09T00:43:30;98195.47;;;25.14;38.41
65227;BME280;51805;49.012;12.104;2023-07-09T00:48:46;98195.84;;;25.08;38.69
65227;BME280;51805;49.012;12.104;2023-07-09T00:51:16;98194.09;;;25.17;38.51
65227;BME280;51805;49.012;12.104;2023-07-09T00:53:44;98186.00;;;25.12;38.48
65227;BME280;51805;49.012;12.104;2023-07-09T00:56:12;98196.81;;;25.17;38.47
65227;BME280;51805;49.012;12.104;2023-07-09T00:58:39;98198.72;;;25.16;38.56
65227;BME280;51805;49.012;12.104;2023-07-09T01:01:09;98196.59;;;25.13;38.54
65227;BME280;51805;49.012;12.104;2023-07-09T01:03:47;98199.59;;;25.12;38.50
65227;BME280;51805;49.012;12.104;2023-07-09T01:06:15;98209.59;;;25.16;38.56
65227;BME280;51805;49.012;12.104;2023-07-09T01:08:44;98205.63;;;25.09;38.62
65227;BME280;51805;49.012;12.104;2023-07-09T01:11:17;98207.28;;;25.05;38.72
65227;BME280;51805;49.012;12.104;2023-07-09T01:13:42;98215.09;;;25.11;38.62
65227;BME280;51805;49.012;12.104;2023-07-09T01:16:08;98209.94;;;25.10;38.51
65227;BME280;51805;49.012;12.104;2023-07-09T01:18:33;98220.03;;;25.09;38.65
65227;BME280;51805;49.012;12.104;2023-07-09T01:21:07;98218.91;;;25.10;38.52
65227;BME280;51805;49.012;12.104;2023-07-09T01:23:33;98204.34;;;25.01;38.58
65227;BME280;51805;49.012;12.104;2023-07-09T01:25:58;98216.78;;;25.07;38.60
65227;BME280;51805;49.012;12.104;2023-07-09T01:28:23;98205.41;;;25.00;38.68
65227;BME280;51805;49.012;12.104;2023-07-09T01:30:49;98224.13;;;25.07;38.63
65227;BME280;51805;49.012;12.104;2023-07-09T01:33:14;98220.88;;;25.05;38.55
65227;BME280;51805;49.012;12.104;2023-07-09T01:35:40;98215.22;;;25.01;38.62
65227;BME280;51805;49.012;12.104;2023-07-09T01:38:05;98225.53;;;25.04;38.82
65227;BME280;51805;49.012;12.104;2023-07-09T01:40:30;98223.38;;;25.01;38.85
65227;BME280;51805;49.012;12.104;2023-07-09T01:42:57;98223.59;;;25.05;38.92
65227;BME280;51805;49.012;12.104;2023-07-09T01:45:22;98198.22;;;24.91;38.96
65227;BME280;51805;49.012;12.104;2023-07-09T01:47:48;98212.56;;;24.96;38.99
65227;BME280;51805;49.012;12.104;2023-07-09T01:50:13;98210.94;;;24.95;39.08
65227;BME280;51805;49.012;12.104;2023-07-09T01:52:41;98214.16;;;24.97;39.07
65227;BME280;51805;49.012;12.104;2023-07-09T01:55:13;98219.84;;;25.01;39.23
65227;BME280;51805;49.012;12.104;2023-07-09T01:57:38;98213.13;;;24.93;39.02
65227;BME280;51805;49.012;12.104;2023-07-09T02:00:07;98229.91;;;25.00;39.17
65227;BME280;51805;49.012;12.104;2023-07-09T02:02:33;98230.25;;;24.94;39.43
65227;BME280;51805;49.012;12.104;2023-07-09T02:04:58;98223.19;;;24.93;39.21
65227;BME280;51805;49.012;12.104;2023-07-09T02:07:24;98224.59;;;24.90;39.37
65227;BME280;51805;49.012;12.104;2023-07-09T02:09:49;98233.28;;;24.92;39.36
65227;BME280;51805;49.012;12.104;2023-07-09T02:12:16;98234.88;;;24.93;39.31
65227;BME280;51805;49.012;12.104;2023-07-09T02:14:43;98229.44;;;24.93;39.38
65227;BME280;51805;49.012;12.104;2023-07-09T02:17:10;98231.63;;;24.91;39.24
65227;BME280;51805;49.012;12.104;2023-07-09T02:19:35;98236.56;;;24.89;39.08
65227;BME280;51805;49.012;12.104;2023-07-09T02:22:01;98223.03;;;24.84;38.85
65227;BME280;51805;49.012;12.104;2023-07-09T02:24:26;98223.81;;;24.85;38.88
65227;BME280;51805;49.012;12.104;2023-07-09T02:26:53;98237.66;;;24.88;38.73
65227;BME280;51805;49.012;12.104;2023-07-09T02:29:18;98231.19;;;24.84;38.89
65227;BME280;51805;49.012;12.104;2023-07-09T02:31:45;98230.34;;;24.84;38.94
65227;BME280;51805;49.012;12.104;2023-07-09T02:34:10;98237.41;;;24.85;38.66
65227;BME280;51805;49.012;12.104;2023-07-09T02:36:36;98244.47;;;24.86;38.66
65227;BME280;51805;49.012;12.104;2023-07-09T02:39:02;98233.13;;;24.79;39.03
65227;BME280;51805;49.012;12.104;2023-07-09T02:41:27;98250.19;;;24.84;38.77
65227;BME280;51805;49.012;12.104;2023-07-09T02:43:52;98234.50;;;24.76;38.79
65227;BME280;51805;49.012;12.104;2023-07-09T02:46:17;98242.09;;;24.79;38.82
65227;BME280;51805;49.012;12.104;2023-07-09T02:48:43;98243.50;;;24.77;38.62
65227;BME280;51805;49.012;12.104;2023-07-09T02:51:08;98250.25;;;24.79;38.75
65227;BME280;51805;49.012;12.104;2023-07-09T02:53:34;98253.53;;;24.76;38.82
65227;BME280;51805;49.012;12.104;2023-07-09T02:55:59;98248.94;;;24.77;38.82
65227;BME280;51805;49.012;12.104;2023-07-09T02:58:24;98248.16;;;24.71;39.12
65227;BME280;51805;49.012;12.104;2023-07-09T03:00:50;98262.22;;;24.78;38.92
65227;BME280;51805;49.012;12.104;2023-07-09T03:03:15;98254.94;;;24.74;38.87
65227;BME280;51805;49.012;12.104;2023-07-09T03:05:40;98250.88;;;24.71;38.88
65227;BME280;51805;49.012;12.104;2023-07-09T03:08:05;98262.84;;;24.70;39.00
65227;BME280;51805;49.012;12.104;2023-07-09T03:10:31;98251.97;;;24.70;39.12
65227;BME280;51805;49.012;12.104;2023-07-09T03:12:56;98265.53;;;24.75;39.05
65227;BME280;51805;49.012;12.104;2023-07-09T03:15:21;98273.38;;;24.77;39.10
65227;BME280;51805;49.012;12.104;2023-07-09T03:17:46;98251.72;;;24.67;39.29
65227;BME280;51805;49.012;12.104;2023-07-09T03:20:12;98269.31;;;24.74;39.32
65227;BME280;51805;49.012;12.104;2023-07-09T03:22:37;98272.59;;;24.71;39.42
65227;BME280;51805;49.012;12.104;2023-07-09T03:25:02;98270.41;;;24.73;39.59
65227;BME280;51805;49.012;12.104;2023-07-09T03:27:28;98258.53;;;24.64;39.54
65227;BME280;51805;49.012;12.104;2023-07-09T03:29:53;98269.38;;;24.69;39.58
65227;BME280;51805;49.012;12.104;2023-07-09T03:32:18;98270.47;;;24.68;39.56
65227;BME280;51805;49.012;12.104;2023-07-09T03:34:44;98257.69;;;24.63;39.59
65227;BME280;51805;49.012;12.104;2023-07-09T03:37:09;98276.44;;;24.70;39.61
65227;BME280;51805;49.012;12.104;2023-07-09T03:39:34;98278.13;;;24.66;39.69
65227;BME280;51805;49.012;12.104;2023-07-09T03:41:59;98266.97;;;24.63;39.61
65227;BME280;51805;49.012;12.104;2023-07-09T03:44:25;98287.31;;;24.70;39.99
65227;BME280;51805;49.012;12.104;2023-07-09T03:46:50;98285.69;;;24.69;39.88
65227;BME280;51805;49.012;12.104;2023-07-09T03:49:16;98292.19;;;24.68;39.82
65227;BME280;51805;49.012;12.104;2023-07-09T03:51:41;98290.03;;;24.70;39.72
65227;BME280;51805;49.012;12.104;2023-07-09T03:54:06;98286.78;;;24.68;39.89
65227;BME280;51805;49.012;12.104;2023-07-09T03:56:31;98285.16;;;24.67;39.83
65227;BME280;51805;49.012;12.104;2023-07-09T03:58:57;98292.75;;;24.70;39.74
65227;BME280;51805;49.012;12.104;2023-07-09T04:01:22;98292.19;;;24.68;39.83
65227;BME280;51805;49.012;12.104;2023-07-09T04:03:47;98293.31;;;24.67;39.99
65227;BME280;51805;49.012;12.104;2023-07-09T04:06:13;98295.47;;;24.65;39.99
65227;BME280;51805;49.012;12.104;2023-07-09T04:08:38;98294.66;;;24.64;39.94
65227;BME280;51805;49.012;12.104;2023-07-09T04:11:05;98294.94;;;24.63;40.00
65227;BME280;51805;49.012;12.104;2023-07-09T04:13:30;98297.34;;;24.64;40.10
65227;BME280;51805;49.012;12.104;2023-07-09T04:15:56;98292.75;;;24.65;40.09
65227;BME280;51805;49.012;12.104;2023-07-09T04:18:22;98298.19;;;24.65;40.02
65227;BME280;51805;49.012;12.104;2023-07-09T04:20:51;98285.19;;;24.57;40.16
65227;BME280;51805;49.012;12.104;2023-07-09T04:23:17;98290.06;;;24.60;40.32
65227;BME280;51805;49.012;12.104;2023-07-09T04:25:42;98294.94;;;24.63;40.32
65227;BME280;51805;49.012;12.104;2023-07-09T04:28:08;98290.31;;;24.63;40.27
65227;BME280;51805;49.012;12.104;2023-07-09T04:30:33;98292.22;;;24.63;40.29
65227;BME280;51805;49.012;12.104;2023-07-09T04:32:58;98292.28;;;24.58;40.03
65227;BME280;51805;49.012;12.104;2023-07-09T04:35:24;98288.69;;;24.63;40.30
65227;BME280;51805;49.012;12.104;2023-07-09T04:37:49;98296.31;;;24.66;40.20
65227;BME280;51805;49.012;12.104;2023-07-09T04:40:14;98299.84;;;24.66;39.95
65227;BME280;51805;49.012;12.104;2023-07-09T04:42:40;98301.47;;;24.67;40.07
65227;BME280;51805;49.012;12.104;2023-07-09T04:45:07;98294.41;;;24.66;39.94
65227;BME280;51805;49.012;12.104;2023-07-09T04:47:33;98295.47;;;24.65;40.20
65227;BME280;51805;49.012;12.104;2023-07-09T04:49:58;98298.19;;;24.65;40.09
65227;BME280;51805;49.012;12.104;2023-07-09T04:52:24;98303.91;;;24.69;40.04
65227;BME280;51805;49.012;12.104;2023-07-09T04:54:49;98304.72;;;24.69;39.96
65227;BME280;51805;49.012;12.104;2023-07-09T04:57:14;98303.91;;;24.69;40.12
65227;BME280;51805;49.012;12.104;2023-07-09T04:59:39;98305.28;;;24.66;40.20
65227;BME280;51805;49.012;12.104;2023-07-09T05:02:05;98296.03;;;24.62;40.07
65227;BME280;51805;49.012;12.104;2023-07-09T05:04:31;98295.50;;;24.60;40.22
65227;BME280;51805;49.012;12.104;2023-07-09T05:06:57;98306.88;;;24.72;40.12
65227;BME280;51805;49.012;12.104;2023-07-09T05:09:22;98307.94;;;24.71;40.09
65227;BME280;51805;49.012;12.104;2023-07-09T05:11:48;98314.44;;;24.75;39.92
65227;BME280;51805;49.012;12.104;2023-07-09T05:14:13;98315.25;;;24.76;40.01
65227;BME280;51805;49.012;12.104;2023-07-09T05:16:38;98318.78;;;24.76;40.20
65227;BME280;51805;49.012;12.104;2023-07-09T05:19:04;98314.16;;;24.77;40.02
65227;BME280;51805;49.012;12.104;2023-07-09T05:21:29;98313.06;;;24.78;39.95
65227;BME280;51805;49.012;12.104;2023-07-09T05:23:54;98314.44;;;24.75;40.09
65227;BME280;51805;49.012;12.104;2023-07-09T05:26:19;98309.81;;;24.76;40.13
65227;BME280;51805;49.012;12.104;2023-07-09T05:28:45;98315.50;;;24.79;40.04
65227;BME280;51805;49.012;12.104;2023-07-09T05:31:10;98305.19;;;24.76;40.11
65227;BME280;51805;49.012;12.104;2023-07-09T05:33:35;98319.25;;;24.83;40.14
65227;BME280;51805;49.012;12.104;2023-07-09T05:36:00;98319.78;;;24.85;40.15
65227;BME280;51805;49.012;12.104;2023-07-09T05:38:26;98324.06;;;24.91;40.04
65227;BME280;51805;49.012;12.104;2023-07-09T05:41:02;98317.31;;;24.89;39.93
65227;BME280;51805;49.012;12.104;2023-07-09T05:43:28;98321.44;;;24.86;40.10
65227;BME280;51805;49.012;12.104;2023-07-09T05:45:53;98324.66;;;24.88;40.29
65227;BME280;51805;49.012;12.104;2023-07-09T05:48:18;98310.88;;;24.80;40.06
65227;BME280;51805;49.012;12.104;2023-07-09T05:50:43;98324.41;;;24.85;40.22
65227;BME280;51805;49.012;12.104;2023-07-09T05:53:09;98334.38;;;24.94;40.28
65227;BME280;51805;49.012;12.104;2023-07-09T05:55:34;98330.88;;;24.94;40.32
65227;BME280;51805;49.012;12.104;2023-07-09T05:57:59;98329.19;;;24.98;40.19
65227;BME280;51805;49.012;12.104;2023-07-09T06:00:25;98336.78;;;25.01;40.20
65227;BME280;51805;49.012;12.104;2023-07-09T06:02:50;98325.66;;;24.97;40.41
65227;BME280;51805;49.012;12.104;2023-07-09T06:05:16;98341.63;;;25.04;40.51
65227;BME280;51805;49.012;12.104;2023-07-09T06:07:41;98335.09;;;25.05;40.41
65227;BME280;51805;49.012;12.104;2023-07-09T06:10:08;98328.84;;;25.04;40.34
65227;BME280;51805;49.012;12.104;2023-07-09T06:12:34;98336.91;;;25.14;40.12
65227;BME280;51805;49.012;12.104;2023-07-09T06:14:59;98328.53;;;25.11;40.11
65227;BME280;51805;49.012;12.104;2023-07-09T06:17:25;98316.81;;;25.10;39.73
65227;BME280;51805;49.012;12.104;2023-07-09T06:19:50;98331.41;;;25.19;39.76
65227;BME280;51805;49.012;12.104;2023-07-09T06:22:15;98328.13;;;25.22;39.55
65227;BME280;51805;49.012;12.104;2023-07-09T06:24:40;98336.81;;;25.24;39.37
65227;BME280;51805;49.012;12.104;2023-07-09T06:27:06;98331.63;;;25.28;39.50
65227;BME280;51805;49.012;12.104;2023-07-09T06:29:31;98335.13;;;25.28;39.44
65227;BME280;51805;49.012;12.104;2023-07-09T06:31:56;98327.25;;;25.27;39.17
65227;BME280;51805;49.012;12.104;2023-07-09T06:34:22;98335.38;;;25.32;39.15
65227;BME280;51805;49.012;12.104;2023-07-09T06:36:47;98318.09;;;25.18;39.02
65227;BME280;51805;49.012;12.104;2023-07-09T06:39:12;98341.09;;;25.35;38.97
65227;BME280;51805;49.012;12.104;2023-07-09T06:41:38;98330.22;;;25.35;39.02
65227;BME280;51805;49.012;12.104;2023-07-09T06:44:06;98351.84;;;25.45;38.79
65227;BME280;51805;49.012;12.104;2023-07-09T06:46:31;98342.66;;;25.41;38.79
65227;BME280;51805;49.012;12.104;2023-07-09T06:48:57;98336.69;;;25.39;38.86
65227;BME280;51805;49.012;12.104;2023-07-09T06:51:22;98346.41;;;25.45;38.73
65227;BME280;51805;49.012;12.104;2023-07-09T06:53:47;98345.59;;;25.45;38.66
65227;BME280;51805;49.012;12.104;2023-07-09T06:56:12;98345.53;;;25.50;38.45
65227;BME280;51805;49.012;12.104;2023-07-09T06:58:38;98344.97;;;25.53;38.64
65227;BME280;51805;49.012;12.104;2023-07-09T07:01:04;98346.31;;;25.55;38.64
65227;BME280;51805;49.012;12.104;2023-07-09T07:03:31;98341.72;;;25.51;38.71
65227;BME280;51805;49.012;12.104;2023-07-09T07:05:56;98345.19;;;25.56;38.65
65227;BME280;51805;49.012;12.104;2023-07-09T07:08:22;98353.81;;;25.63;38.52
65227;BME280;51805;49.012;12.104;2023-07-09T07:10:49;98333.19;;;25.57;38.49
65227;BME280;51805;49.012;12.104;2023-07-09T07:13:14;98347.25;;;25.69;38.40
65227;BME280;51805;49.012;12.104;2023-07-09T07:15:40;98343.94;;;25.72;38.54
65227;BME280;51805;49.012;12.104;2023-07-09T07:18:06;98345.31;;;25.70;38.37
65227;BME280;51805;49.012;12.104;2023-07-09T07:20:32;98349.28;;;25.77;38.15
65227;BME280;51805;49.012;12.104;2023-07-09T07:22:57;98349.81;;;25.79;38.37
65227;BME280;51805;49.012;12.104;2023-07-09T07:25:23;98344.91;;;25.81;38.63
65227;BME280;51805;49.012;12.104;2023-07-09T07:27:48;98341.06;;;25.82;38.49
65227;BME280;51805;49.012;12.104;2023-07-09T07:30:13;98350.25;;;25.86;38.77
65227;BME280;51805;49.012;12.104;2023-07-09T07:32:44;98341.06;;;25.82;38.56
65227;BME280;51805;49.012;12.104;2023-07-09T07:35:10;98322.88;;;25.78;38.60
65227;BME280;51805;49.012;12.104;2023-07-09T07:37:35;98339.47;;;25.81;38.76
65227;BME280;51805;49.012;12.104;2023-07-09T07:40:01;98329.06;;;25.83;38.56
65227;BME280;51805;49.012;12.104;2023-07-09T07:42:27;98338.53;;;25.91;38.71
65227;BME280;51805;49.012;12.104;2023-07-09T07:44:52;98337.66;;;25.95;38.72
65227;BME280;51805;49.012;12.104;2023-07-09T07:47:18;98341.97;;;25.96;38.65
65227;BME280;51805;49.012;12.104;2023-07-09T07:49:43;98340.88;;;25.97;38.37
65227;BME280;51805;49.012;12.104;2023-07-09T07:52:08;98331.09;;;25.96;38.54
65227;BME280;51805;49.012;12.104;2023-07-09T07:54:34;98339.22;;;26.01;38.45
65227;BME280;51805;49.012;12.104;2023-07-09T07:56:59;98331.50;;;26.08;38.55
65227;BME280;51805;49.012;12.104;2023-07-09T07:59:25;98338.00;;;26.13;38.37
65227;BME280;51805;49.012;12.104;2023-07-09T08:01:50;98339.66;;;26.08;38.48
65227;BME280;51805;49.012;12.104;2023-07-09T08:04:15;98343.94;;;26.14;38.31
65227;BME280;51805;49.012;12.104;2023-07-09T08:06:41;98331.84;;;26.21;38.42
65227;BME280;51805;49.012;12.104;2023-07-09T08:09:06;98331.66;;;26.17;38.28
65227;BME280;51805;49.012;12.104;2023-07-09T08:11:31;98331.66;;;26.17;38.42
65227;BME280;51805;49.012;12.104;2023-07-09T08:13:57;98326.41;;;26.21;38.44
65227;BME280;51805;49.012;12.104;2023-07-09T08:16:22;98330.69;;;26.27;38.32
65227;BME280;51805;49.012;12.104;2023-07-09T08:18:47;98326.28;;;26.31;38.00
65227;BME280;51805;49.012;12.104;2023-07-09T08:21:12;98316.63;;;26.38;38.33
65227;BME280;51805;49.012;12.104;2023-07-09T08:23:39;98317.44;;;26.39;37.98
65227;BME280;51805;49.012;12.104;2023-07-09T08:26:04;98321.47;;;26.41;38.27
65227;BME280;51805;49.012;12.104;2023-07-09T08:28:30;98317.34;;;26.44;38.29
65227;BME280;51805;49.012;12.104;2023-07-09T08:30:56;98320.59;;;26.46;37.95
65227;BME280;51805;49.012;12.104;2023-07-09T08:33:23;98318.97;;;26.45;37.89
65227;BME280;51805;49.012;12.104;2023-07-09T08:35:49;98315.66;;;26.48;37.83
65227;BME280;51805;49.012;12.104;2023-07-09T08:38:15;98313.22;;;26.46;37.80
65227;BME280;51805;49.012;12.104;2023-07-09T08:40:42;98311.22;;;26.52;37.71
65227;BME280;51805;49.012;12.104;2023-07-09T08:45:57;98309.25;;;26.57;37.48
65227;BME280;51805;49.012;12.104;2023-07-09T08:48:34;98314.09;;;26.60;37.14
65227;BME280;51805;49.012;12.104;2023-07-09T08:51:10;98309.44;;;26.61;37.27
65227;BME280;51805;49.012;12.104;2023-07-09T08:53:54;98316.00;;;26.60;37.05
65227;BME280;51805;49.012;12.104;2023-07-09T08:56:22;98311.00;;;26.67;37.08
65227;BME280;51805;49.012;12.104;2023-07-09T08:58:49;98309.91;;;26.68;37.11
65227;BME280;51805;49.012;12.104;2023-07-09T09:01:21;98310.94;;;26.72;37.10
65227;BME280;51805;49.012;12.104;2023-07-09T09:03:50;98301.72;;;26.68;36.78
65227;BME280;51805;49.012;12.104;2023-07-09T09:06:20;98306.28;;;26.72;36.85
65227;BME280;51805;49.012;12.104;2023-07-09T09:11:24;98303.88;;;26.71;36.15
65227;BME280;51805;49.012;12.104;2023-07-09T09:13:55;98300.03;;;26.72;36.12
65227;BME280;51805;49.012;12.104;2023-07-09T09:16:41;98313.56;;;26.77;36.06
65227;BME280;51805;49.012;12.104;2023-07-09T09:19:22;98286.47;;;26.67;36.00
65227;BME280;51805;49.012;12.104;2023-07-09T09:21:50;98307.94;;;26.87;36.06
65227;BME280;51805;49.012;12.104;2023-07-09T09:24:27;98286.31;;;26.77;35.71
65227;BME280;51805;49.012;12.104;2023-07-09T09:26:57;98298.16;;;26.86;35.69
65227;BME280;51805;49.012;12.104;2023-07-09T09:29:24;98303.44;;;26.96;35.60
65227;BME280;51805;49.012;12.104;2023-07-09T09:31:53;98294.22;;;26.92;35.45
65227;BME280;51805;49.012;12.104;2023-07-09T09:34:27;98307.25;;;26.95;35.21
65227;BME280;51805;49.012;12.104;2023-07-09T09:36:53;98296.34;;;26.95;35.38
65227;BME280;51805;49.012;12.104;2023-07-09T09:39:18;98290.41;;;26.93;35.21
65227;BME280;51805;49.012;12.104;2023-07-09T09:41:44;98256.81;;;26.79;35.04
65227;BME280;51805;49.012;12.104;2023-07-09T09:44:21;98289.78;;;26.96;34.96
65227;BME280;51805;49.012;12.104;2023-07-09T09:46:48;98282.22;;;26.93;34.75
65227;BME280;51805;49.012;12.104;2023-07-09T09:49:13;98283.91;;;26.89;34.40
65227;BME280;51805;49.012;12.104;2023-07-09T09:51:40;98297.25;;;27.04;34.56
65227;BME280;51805;49.012;12.104;2023-07-09T09:54:19;98288.16;;;26.95;33.99
65227;BME280;51805;49.012;12.104;2023-07-09T09:56:45;98289.78;;;26.96;34.06
65227;BME280;51805;49.012;12.104;2023-07-09T09:59:18;98284.34;;;26.96;34.19
65227;BME280;51805;49.012;12.104;2023-07-09T10:01:44;98307.78;;;27.10;33.95
65227;BME280;51805;49.012;12.104;2023-07-09T10:04:16;98286.94;;;27.01;33.96
65227;BME280;51805;49.012;12.104;2023-07-09T10:06:46;98288.91;;;27.00;33.61
65227;BME280;51805;49.012;12.104;2023-07-09T10:09:47;98293.25;;;27.15;33.75
65227;BME280;51805;49.012;12.104;2023-07-09T10:15:01;98277.06;;;27.05;33.58
65227;BME280;51805;49.012;12.104;2023-07-09T10:17:37;98291.03;;;27.17;33.17
65227;BME280;51805;49.012;12.104;2023-07-09T10:20:20;98289.81;;;27.23;33.25
65227;BME280;51805;49.012;12.104;2023-07-09T10:25:48;98289.53;;;27.24;33.01
65227;BME280;51805;49.012;12.104;2023-07-09T10:34:20;98287.81;;;27.28;32.89
65227;BME280;51805;49.012;12.104;2023-07-09T10:39:22;98280.38;;;27.34;32.73
65227;BME280;51805;49.012;12.104;2023-07-09T10:41:50;98247.59;;;27.20;32.45
65227;BME280;51805;49.012;12.104;2023-07-09T10:44:20;98264.91;;;27.29;32.03
65227;BME280;51805;49.012;12.104;2023-07-09T10:46:50;98272.19;;;27.34;31.33
65227;BME280;51805;49.012;12.104;2023-07-09T10:49:17;98277.13;;;27.32;31.77
65227;BME280;51805;49.012;12.104;2023-07-09T10:51:49;98254.94;;;27.20;31.36
65227;BME280;51805;49.012;12.104;2023-07-09T10:54:29;98263.56;;;27.27;31.76
65227;BME280;51805;49.012;12.104;2023-07-09T10:57:11;98274.09;;;27.33;31.63
65227;BME280;51805;49.012;12.104;2023-07-09T10:59:40;98270.97;;;27.40;30.83
65227;BME280;51805;49.012;12.104;2023-07-09T11:02:18;98267.31;;;27.44;30.67
65227;BME280;51805;49.012;12.104;2023-07-09T11:04:51;98254.28;;;27.41;30.78
65227;BME280;51805;49.012;12.104;2023-07-09T11:07:23;98264.78;;;27.48;30.64
65227;BME280;51805;49.012;12.104;2023-07-09T11:09:52;98262.66;;;27.45;30.97
65227;BME280;51805;49.012;12.104;2023-07-09T11:12:24;98258.22;;;27.49;30.78
65227;BME280;51805;49.012;12.104;2023-07-09T11:15:01;98259.50;;;27.51;30.53
65227;BME280;51805;49.012;12.104;2023-07-09T11:17:28;98263.56;;;27.54;30.52
65227;BME280;51805;49.012;12.104;2023-07-09T11:19:58;98259.34;;;27.48;30.68
65227;BME280;51805;49.012;12.104;2023-07-09T11:22:39;98234.66;;;27.26;30.50
65227;BME280;51805;49.012;12.104;2023-07-09T11:25:14;98259.25;;;27.53;30.13
65227;BME280;51805;49.012;12.104;2023-07-09T11:27:53;98263.47;;;27.59;29.66
65227;BME280;51805;49.012;12.104;2023-07-09T11:30:24;98228.19;;;27.49;29.87
65227;BME280;51805;49.012;12.104;2023-07-09T11:33:15;98250.50;;;27.64;29.22
65227;BME280;51805;49.012;12.104;2023-07-09T11:35:49;98242.25;;;27.56;29.45
65227;BME280;51805;49.012;12.104;2023-07-09T11:38:25;98262.25;;;27.65;29.53
65227;BME280;51805;49.012;12.104;2023-07-09T11:40:53;98251.44;;;27.60;29.72
65227;BME280;51805;49.012;12.104;2023-07-09T11:43:32;98252.25;;;27.60;29.21
65227;BME280;51805;49.012;12.104;2023-07-09T11:46:12;98234.94;;;27.65;29.27
65227;BME280;51805;49.012;12.104;2023-07-09T11:48:40;98225.41;;;27.62;28.78
65227;BME280;51805;49.012;12.104;2023-07-09T11:51:14;98233.72;;;27.71;28.85
65227;BME280;51805;49.012;12.104;2023-07-09T11:53:49;98225.00;;;27.69;28.83
65227;BME280;51805;49.012;12.104;2023-07-09T11:56:20;98241.19;;;27.79;28.63
65227;BME280;51805;49.012;12.104;2023-07-09T11:58:55;98236.34;;;27.76;28.75
65227;BME280;51805;49.012;12.104;2023-07-09T12:01:22;98237.94;;;27.77;28.92
65227;BME280;51805;49.012;12.104;2023-07-09T12:03:48;98208.25;;;27.62;28.95
65227;BME280;51805;49.012;12.104;2023-07-09T12:06:25;98197.81;;;27.64;29.04
65227;BME280;51805;49.012;12.104;2023-07-09T12:08:52;98229.13;;;27.80;28.78
65227;BME280;51805;49.012;12.104;2023-07-09T12:11:31;98205.53;;;27.84;28.33
65227;BME280;51805;49.012;12.104;2023-07-09T12:14:05;98214.97;;;27.92;28.01
65227;BME280;51805;49.012;12.104;2023-07-09T12:16:35;98215.34;;;27.99;27.98
65227;BME280;51805;49.012;12.104;2023-07-09T12:19:00;98207.91;;;27.91;28.19
65227;BME280;51805;49.012;12.104;2023-07-09T12:21:26;98183.84;;;27.79;28.24
65227;BME280;51805;49.012;12.104;2023-07-09T12:23:53;98203.25;;;27.91;28.18
65227;BME280;51805;49.012;12.104;2023-07-09T12:26:20;98193.53;;;27.85;27.87
65227;BME280;51805;49.012;12.104;2023-07-09T12:28:53;98191.19;;;27.92;28.34
65227;BME280;51805;49.012;12.104;2023-07-09T12:31:24;98203.81;;;28.02;28.16
65227;BME280;51805;49.012;12.104;2023-07-09T12:33:53;98192.22;;;27.96;28.16
65227;BME280;51805;49.012;12.104;2023-07-09T12:36:18;98191.75;;;28.03;28.11
65227;BME280;51805;49.012;12.104;2023-07-09T12:38:56;98190.19;;;28.10;27.59
65227;BME280;51805;49.012;12.104;2023-07-09T12:41:27;98183.53;;;28.16;27.66
65227;BME280;51805;49.012;12.104;2023-07-09T12:43:54;98189.16;;;28.20;27.66
65227;BME280;51805;49.012;12.104;2023-07-09T12:46:22;98179.66;;;28.17;27.78
65227;BME280;51805;49.012;12.104;2023-07-09T12:48:48;98182.09;;;28.19;27.71
65227;BME280;51805;49.012;12.104;2023-07-09T12:51:15;98182.44;;;28.26;27.73
65227;BME280;51805;49.012;12.104;2023-07-09T12:53:43;98140.31;;;27.96;27.90
65227;BME280;51805;49.012;12.104;2023-07-09T12:56:12;98179.41;;;28.27;27.65
65227;BME280;51805;49.012;12.104;2023-07-09T12:58:38;98180.72;;;28.30;27.33
65227;BME280;51805;49.012;12.104;2023-07-09T13:01:12;98174.81;;;28.36;27.45
65227;BME280;51805;49.012;12.104;2023-07-09T13:03:38;98133.72;;;28.19;27.29
65227;BME280;51805;49.012;12.104;2023-07-09T13:06:06;98174.59;;;28.55;26.89
65227;BME280;51805;49.012;12.104;2023-07-09T13:08:39;98149.13;;;28.46;26.73
65227;BME280;51805;49.012;12.104;2023-07-09T13:11:14;98164.22;;;28.65;26.62
65227;BME280;51805;49.012;12.104;2023-07-09T13:13:40;98098.22;;;28.28;26.51
65227;BME280;51805;49.012;12.104;2023-07-09T13:16:06;98144.41;;;28.60;26.51